sensor_id;sensor_type;location;lat;lon;timestamp;P1;durP1;ratioP1;P2;durP2;ratioP2
54460;SDS011;40371;49.414;11.010;2023-02-20T00:01:29;7.87;;;7.00;;
54460;SDS011;40371;49.414;11.010;2023-02-20T00:03:57;20.73;;;17.87;;
54460;SDS011;40371;49.414;11.010;2023-02-20T00:06:22;8.77;;;5.57;;
54460;SDS011;40371;49.414;11.010;2023-02-20T00:08:48;5.93;;;5.33;;
54460;SDS011;40371;49.414;11.010;2023-02-20T00:11:14;7.73;;;5.10;;
54460;SDS011;40371;49.414;11.010;2023-02-20T00:13:46;8.33;;;5.63;;
54460;SDS011;40371;49.414;11.010;2023-02-20T00:16:13;7.17;;;5.83;;
54460;SDS011;40371;49.414;11.010;2023-02-20T00:18:38;6.13;;;5.50;;
54460;SDS011;40371;49.414;11.010;2023-02-20T00:21:04;6.53;;;5.50;;
54460;SDS011;40371;49.414;11.010;2023-02-20T00:23:33;6.73;;;5.33;;
54460;SDS011;40371;49.414;11.010;2023-02-20T00:25:59;6.60;;;5.87;;
54460;SDS011;40371;49.414;11.010;2023-02-20T00:28:25;6.17;;;5.20;;
54460;SDS011;40371;49.414;11.010;2023-02-20T00:30:52;6.53;;;5.70;;
54460;SDS011;40371;49.414;11.010;2023-02-20T00:33:17;9.67;;;6.03;;
54460;SDS011;40371;49.414;11.010;2023-02-20T00:35:43;9.00;;;6.17;;
54460;SDS011;40371;49.414;11.010;2023-02-20T00:38:08;6.77;;;5.97;;
54460;SDS011;40371;49.414;11.010;2023-02-20T00:40:34;6.73;;;6.03;;
54460;SDS011;40371;49.414;11.010;2023-02-20T00:43:00;7.93;;;5.77;;
54460;SDS011;40371;49.414;11.010;2023-02-20T00:45:25;6.87;;;5.17;;
54460;SDS011;40371;49.414;11.010;2023-02-20T00:47:53;7.97;;;6.33;;
54460;SDS011;40371;49.414;11.010;2023-02-20T00:50:19;6.80;;;6.00;;
54460;SDS011;40371;49.414;11.010;2023-02-20T00:52:45;7.00;;;5.77;;
54460;SDS011;40371;49.414;11.010;2023-02-20T00:55:10;7.03;;;5.80;;
54460;SDS011;40371;49.414;11.010;2023-02-20T00:57:36;7.63;;;6.07;;
54460;SDS011;40371;49.414;11.010;2023-02-20T01:00:03;8.73;;;5.97;;
54460;SDS011;40371;49.414;11.010;2023-02-20T01:02:31;6.67;;;6.07;;
54460;SDS011;40371;49.414;11.010;2023-02-20T01:04:57;10.17;;;6.57;;
54460;SDS011;40371;49.414;11.010;2023-02-20T01:07:22;5.97;;;5.47;;
54460;SDS011;40371;49.414;11.010;2023-02-20T01:09:48;7.07;;;6.03;;
54460;SDS011;40371;49.414;11.010;2023-02-20T01:12:14;7.40;;;6.23;;
54460;SDS011;40371;49.414;11.010;2023-02-20T01:14:40;8.17;;;5.70;;
54460;SDS011;40371;49.414;11.010;2023-02-20T01:17:05;10.27;;;6.27;;
54460;SDS011;40371;49.414;11.010;2023-02-20T01:19:31;7.73;;;6.03;;
54460;SDS011;40371;49.414;11.010;2023-02-20T01:21:57;7.97;;;6.10;;
54460;SDS011;40371;49.414;11.010;2023-02-20T01:24:24;7.60;;;6.00;;
54460;SDS011;40371;49.414;11.010;2023-02-20T01:26:50;10.53;;;6.27;;
54460;SDS011;40371;49.414;11.010;2023-02-20T01:29:16;7.47;;;6.37;;
54460;SDS011;40371;49.414;11.010;2023-02-20T01:31:46;7.30;;;6.60;;
54460;SDS011;40371;49.414;11.010;2023-02-20T01:34:15;7.87;;;5.73;;
54460;SDS011;40371;49.414;11.010;2023-02-20T01:36:45;8.03;;;6.07;;
54460;SDS011;40371;49.414;11.010;2023-02-20T01:39:16;8.57;;;6.23;;
54460;SDS011;40371;49.414;11.010;2023-02-20T01:41:46;7.37;;;5.97;;
54460;SDS011;40371;49.414;11.010;2023-02-20T01:44:22;9.57;;;6.30;;
54460;SDS011;40371;49.414;11.010;2023-02-20T01:46:55;10.83;;;6.50;;
54460;SDS011;40371;49.414;11.010;2023-02-20T01:54:48;7.87;;;6.23;;
54460;SDS011;40371;49.414;11.010;2023-02-20T01:57:22;9.00;;;6.13;;
54460;SDS011;40371;49.414;11.010;2023-02-20T01:59:51;10.13;;;6.17;;
54460;SDS011;40371;49.414;11.010;2023-02-20T02:02:20;9.57;;;6.87;;
54460;SDS011;40371;49.414;11.010;2023-02-20T02:04:47;10.83;;;5.90;;
54460;SDS011;40371;49.414;11.010;2023-02-20T02:07:14;7.93;;;6.67;;
54460;SDS011;40371;49.414;11.010;2023-02-20T02:09:44;9.13;;;6.70;;
54460;SDS011;40371;49.414;11.010;2023-02-20T02:12:14;7.30;;;6.57;;
54460;SDS011;40371;49.414;11.010;2023-02-20T02:14:40;10.93;;;6.97;;
54460;SDS011;40371;49.414;11.010;2023-02-20T02:17:16;8.77;;;6.90;;
54460;SDS011;40371;49.414;11.010;2023-02-20T02:39:03;10.03;;;7.87;;
54460;SDS011;40371;49.414;11.010;2023-02-20T02:41:55;14.60;;;7.50;;
54460;SDS011;40371;49.414;11.010;2023-02-20T02:52:22;10.80;;;8.50;;
54460;SDS011;40371;49.414;11.010;2023-02-20T02:55:14;9.87;;;8.00;;
54460;SDS011;40371;49.414;11.010;2023-02-20T02:57:41;12.43;;;8.47;;
54460;SDS011;40371;49.414;11.010;2023-02-20T03:00:15;15.43;;;8.70;;
54460;SDS011;40371;49.414;11.010;2023-02-20T03:02:51;11.13;;;8.10;;
54460;SDS011;40371;49.414;11.010;2023-02-20T03:05:23;11.90;;;9.20;;
54460;SDS011;40371;49.414;11.010;2023-02-20T03:08:04;12.47;;;9.03;;
54460;SDS011;40371;49.414;11.010;2023-02-20T03:10:38;12.13;;;9.43;;
54460;SDS011;40371;49.414;11.010;2023-02-20T03:13:07;9.43;;;8.27;;
54460;SDS011;40371;49.414;11.010;2023-02-20T03:15:38;15.33;;;10.10;;
54460;SDS011;40371;49.414;11.010;2023-02-20T03:18:28;13.47;;;8.93;;
54460;SDS011;40371;49.414;11.010;2023-02-20T03:21:02;11.17;;;8.50;;
54460;SDS011;40371;49.414;11.010;2023-02-20T03:23:37;12.33;;;9.07;;
54460;SDS011;40371;49.414;11.010;2023-02-20T03:26:08;12.47;;;9.53;;
54460;SDS011;40371;49.414;11.010;2023-02-20T03:34:09;10.27;;;8.67;;
54460;SDS011;40371;49.414;11.010;2023-02-20T03:37:11;14.07;;;9.60;;
54460;SDS011;40371;49.414;11.010;2023-02-20T03:40:04;9.73;;;8.73;;
54460;SDS011;40371;49.414;11.010;2023-02-20T03:42:57;15.30;;;9.63;;
54460;SDS011;40371;49.414;11.010;2023-02-20T03:45:46;14.13;;;9.23;;
54460;SDS011;40371;49.414;11.010;2023-02-20T03:48:18;10.33;;;9.00;;
54460;SDS011;40371;49.414;11.010;2023-02-20T03:50:49;11.27;;;8.90;;
54460;SDS011;40371;49.414;11.010;2023-02-20T03:53:15;11.00;;;8.70;;
54460;SDS011;40371;49.414;11.010;2023-02-20T03:55:41;12.70;;;9.57;;
54460;SDS011;40371;49.414;11.010;2023-02-20T03:58:11;11.47;;;9.07;;
54460;SDS011;40371;49.414;11.010;2023-02-20T04:00:40;10.13;;;9.10;;
54460;SDS011;40371;49.414;11.010;2023-02-20T04:03:24;13.07;;;8.77;;
54460;SDS011;40371;49.414;11.010;2023-02-20T04:05:53;10.83;;;9.50;;
54460;SDS011;40371;49.414;11.010;2023-02-20T04:08:29;13.37;;;8.87;;
54460;SDS011;40371;49.414;11.010;2023-02-20T04:11:14;10.77;;;9.60;;
54460;SDS011;40371;49.414;11.010;2023-02-20T04:14:00;11.27;;;8.80;;
54460;SDS011;40371;49.414;11.010;2023-02-20T04:16:27;11.83;;;9.40;;
54460;SDS011;40371;49.414;11.010;2023-02-20T04:18:56;13.13;;;9.33;;
54460;SDS011;40371;49.414;11.010;2023-02-20T04:21:24;10.60;;;9.13;;
54460;SDS011;40371;49.414;11.010;2023-02-20T04:24:02;14.37;;;9.83;;
54460;SDS011;40371;49.414;11.010;2023-02-20T04:26:31;13.40;;;9.47;;
54460;SDS011;40371;49.414;11.010;2023-02-20T04:28:57;14.07;;;9.77;;
54460;SDS011;40371;49.414;11.010;2023-02-20T04:31:23;12.63;;;9.47;;
54460;SDS011;40371;49.414;11.010;2023-02-20T04:33:49;12.93;;;9.80;;
54460;SDS011;40371;49.414;11.010;2023-02-20T04:36:19;13.90;;;9.57;;
54460;SDS011;40371;49.414;11.010;2023-02-20T04:38:45;13.67;;;9.33;;
54460;SDS011;40371;49.414;11.010;2023-02-20T04:41:14;11.90;;;9.00;;
54460;SDS011;40371;49.414;11.010;2023-02-20T04:43:39;10.33;;;8.47;;
54460;SDS011;40371;49.414;11.010;2023-02-20T04:46:05;14.00;;;9.30;;
54460;SDS011;40371;49.414;11.010;2023-02-20T04:48:32;13.17;;;9.67;;
54460;SDS011;40371;49.414;11.010;2023-02-20T04:50:59;10.07;;;9.07;;
54460;SDS011;40371;49.414;11.010;2023-02-20T04:53:25;12.07;;;8.03;;
54460;SDS011;40371;49.414;11.010;2023-02-20T04:55:51;11.80;;;8.57;;
54460;SDS011;40371;49.414;11.010;2023-02-20T04:58:20;8.13;;;7.33;;
54460;SDS011;40371;49.414;11.010;2023-02-20T05:00:50;10.47;;;7.40;;
54460;SDS011;40371;49.414;11.010;2023-02-20T05:03:15;11.97;;;7.97;;
54460;SDS011;40371;49.414;11.010;2023-02-20T05:05:41;8.53;;;6.77;;
54460;SDS011;40371;49.414;11.010;2023-02-20T05:08:07;8.57;;;6.60;;
54460;SDS011;40371;49.414;11.010;2023-02-20T05:10:33;7.73;;;6.83;;
54460;SDS011;40371;49.414;11.010;2023-02-20T05:12:59;10.00;;;6.60;;
54460;SDS011;40371;49.414;11.010;2023-02-20T05:15:26;10.23;;;6.37;;
54460;SDS011;40371;49.414;11.010;2023-02-20T05:17:52;12.47;;;6.67;;
54460;SDS011;40371;49.414;11.010;2023-02-20T05:20:17;10.10;;;6.50;;
54460;SDS011;40371;49.414;11.010;2023-02-20T05:22:44;8.03;;;6.37;;
54460;SDS011;40371;49.414;11.010;2023-02-20T05:25:10;7.00;;;6.27;;
54460;SDS011;40371;49.414;11.010;2023-02-20T05:27:37;8.20;;;6.03;;
54460;SDS011;40371;49.414;11.010;2023-02-20T05:30:03;8.40;;;6.27;;
54460;SDS011;40371;49.414;11.010;2023-02-20T05:32:30;6.57;;;5.87;;
54460;SDS011;40371;49.414;11.010;2023-02-20T05:34:56;7.03;;;6.23;;
54460;SDS011;40371;49.414;11.010;2023-02-20T05:37:22;9.77;;;6.57;;
54460;SDS011;40371;49.414;11.010;2023-02-20T05:39:49;10.97;;;7.03;;
54460;SDS011;40371;49.414;11.010;2023-02-20T05:42:15;7.40;;;6.60;;
54460;SDS011;40371;49.414;11.010;2023-02-20T05:44:41;9.00;;;6.97;;
54460;SDS011;40371;49.414;11.010;2023-02-20T05:47:07;9.50;;;6.93;;
54460;SDS011;40371;49.414;11.010;2023-02-20T05:49:33;8.30;;;6.60;;
54460;SDS011;40371;49.414;11.010;2023-02-20T05:52:00;10.57;;;7.50;;
54460;SDS011;40371;49.414;11.010;2023-02-20T05:54:26;9.27;;;7.40;;
54460;SDS011;40371;49.414;11.010;2023-02-20T05:56:54;10.27;;;7.20;;
54460;SDS011;40371;49.414;11.010;2023-02-20T05:59:21;8.93;;;6.90;;
54460;SDS011;40371;49.414;11.010;2023-02-20T06:01:47;8.47;;;6.50;;
54460;SDS011;40371;49.414;11.010;2023-02-20T06:04:16;7.73;;;6.93;;
54460;SDS011;40371;49.414;11.010;2023-02-20T06:06:42;8.87;;;6.60;;
54460;SDS011;40371;49.414;11.010;2023-02-20T06:09:10;9.90;;;6.67;;
54460;SDS011;40371;49.414;11.010;2023-02-20T06:11:37;7.13;;;6.43;;
54460;SDS011;40371;49.414;11.010;2023-02-20T06:14:03;9.83;;;6.93;;
54460;SDS011;40371;49.414;11.010;2023-02-20T06:16:30;7.57;;;6.33;;
54460;SDS011;40371;49.414;11.010;2023-02-20T06:18:58;7.70;;;6.10;;
54460;SDS011;40371;49.414;11.010;2023-02-20T06:21:24;9.37;;;6.97;;
54460;SDS011;40371;49.414;11.010;2023-02-20T06:23:50;11.87;;;6.90;;
54460;SDS011;40371;49.414;11.010;2023-02-20T06:26:16;10.47;;;6.97;;
54460;SDS011;40371;49.414;11.010;2023-02-20T06:28:43;7.13;;;6.43;;
54460;SDS011;40371;49.414;11.010;2023-02-20T06:31:09;8.43;;;6.30;;
54460;SDS011;40371;49.414;11.010;2023-02-20T06:33:35;10.30;;;6.73;;
54460;SDS011;40371;49.414;11.010;2023-02-20T06:36:02;9.30;;;5.97;;
54460;SDS011;40371;49.414;11.010;2023-02-20T06:38:28;9.30;;;6.40;;
54460;SDS011;40371;49.414;11.010;2023-02-20T06:40:54;8.37;;;6.53;;
54460;SDS011;40371;49.414;11.010;2023-02-20T06:43:20;7.83;;;6.17;;
54460;SDS011;40371;49.414;11.010;2023-02-20T06:45:45;8.50;;;5.57;;
54460;SDS011;40371;49.414;11.010;2023-02-20T06:48:11;8.00;;;5.50;;
54460;SDS011;40371;49.414;11.010;2023-02-20T06:50:38;6.50;;;5.87;;
54460;SDS011;40371;49.414;11.010;2023-02-20T06:53:05;6.07;;;5.47;;
54460;SDS011;40371;49.414;11.010;2023-02-20T06:55:31;7.73;;;6.03;;
54460;SDS011;40371;49.414;11.010;2023-02-20T06:57:57;9.70;;;5.93;;
54460;SDS011;40371;49.414;11.010;2023-02-20T07:00:23;9.57;;;6.07;;
54460;SDS011;40371;49.414;11.010;2023-02-20T07:02:49;9.10;;;5.83;;
54460;SDS011;40371;49.414;11.010;2023-02-20T07:05:14;9.03;;;5.87;;
54460;SDS011;40371;49.414;11.010;2023-02-20T07:07:40;7.00;;;5.77;;
54460;SDS011;40371;49.414;11.010;2023-02-20T07:10:06;12.10;;;5.93;;
54460;SDS011;40371;49.414;11.010;2023-02-20T07:12:32;9.00;;;5.90;;
54460;SDS011;40371;49.414;11.010;2023-02-20T07:14:58;8.47;;;5.60;;
54460;SDS011;40371;49.414;11.010;2023-02-20T07:17:24;7.67;;;5.97;;
54460;SDS011;40371;49.414;11.010;2023-02-20T07:19:50;7.77;;;6.03;;
54460;SDS011;40371;49.414;11.010;2023-02-20T07:22:15;8.50;;;5.90;;
54460;SDS011;40371;49.414;11.010;2023-02-20T07:24:41;8.47;;;5.83;;
54460;SDS011;40371;49.414;11.010;2023-02-20T07:27:07;10.43;;;6.50;;
54460;SDS011;40371;49.414;11.010;2023-02-20T07:29:35;9.20;;;6.03;;
54460;SDS011;40371;49.414;11.010;2023-02-20T07:32:01;7.10;;;5.50;;
54460;SDS011;40371;49.414;11.010;2023-02-20T07:34:27;7.07;;;5.50;;
54460;SDS011;40371;49.414;11.010;2023-02-20T07:36:52;7.13;;;4.93;;
54460;SDS011;40371;49.414;11.010;2023-02-20T07:39:18;5.30;;;4.80;;
54460;SDS011;40371;49.414;11.010;2023-02-20T07:41:44;6.03;;;5.20;;
54460;SDS011;40371;49.414;11.010;2023-02-20T07:44:29;7.43;;;5.63;;
54460;SDS011;40371;49.414;11.010;2023-02-20T07:46:55;6.03;;;4.83;;
54460;SDS011;40371;49.414;11.010;2023-02-20T07:49:20;7.07;;;4.47;;
54460;SDS011;40371;49.414;11.010;2023-02-20T07:51:46;4.30;;;3.90;;
54460;SDS011;40371;49.414;11.010;2023-02-20T07:54:11;9.03;;;4.30;;
54460;SDS011;40371;49.414;11.010;2023-02-20T07:56:39;8.13;;;4.70;;
54460;SDS011;40371;49.414;11.010;2023-02-20T07:59:05;5.77;;;4.60;;
54460;SDS011;40371;49.414;11.010;2023-02-20T08:01:30;5.90;;;4.03;;
54460;SDS011;40371;49.414;11.010;2023-02-20T08:03:56;5.07;;;3.43;;
54460;SDS011;40371;49.414;11.010;2023-02-20T08:06:22;5.83;;;3.60;;
54460;SDS011;40371;49.414;11.010;2023-02-20T08:08:48;5.53;;;3.10;;
54460;SDS011;40371;49.414;11.010;2023-02-20T08:11:14;6.27;;;3.40;;
54460;SDS011;40371;49.414;11.010;2023-02-20T08:13:42;5.07;;;2.97;;
54460;SDS011;40371;49.414;11.010;2023-02-20T08:16:08;8.57;;;3.40;;
54460;SDS011;40371;49.414;11.010;2023-02-20T08:18:34;5.30;;;3.33;;
54460;SDS011;40371;49.414;11.010;2023-02-20T08:21:00;3.90;;;2.60;;
54460;SDS011;40371;49.414;11.010;2023-02-20T08:23:26;5.33;;;2.63;;
54460;SDS011;40371;49.414;11.010;2023-02-20T08:25:51;4.70;;;2.90;;
54460;SDS011;40371;49.414;11.010;2023-02-20T08:28:18;3.33;;;2.90;;
54460;SDS011;40371;49.414;11.010;2023-02-20T08:30:44;4.93;;;2.57;;
54460;SDS011;40371;49.414;11.010;2023-02-20T08:33:10;2.93;;;2.30;;
54460;SDS011;40371;49.414;11.010;2023-02-20T08:35:36;5.33;;;2.57;;
54460;SDS011;40371;49.414;11.010;2023-02-20T08:38:02;5.07;;;2.80;;
54460;SDS011;40371;49.414;11.010;2023-02-20T08:40:29;3.13;;;2.43;;
54460;SDS011;40371;49.414;11.010;2023-02-20T08:42:55;6.43;;;2.53;;
54460;SDS011;40371;49.414;11.010;2023-02-20T08:45:20;4.87;;;2.63;;
54460;SDS011;40371;49.414;11.010;2023-02-20T08:47:47;4.83;;;2.33;;
54460;SDS011;40371;49.414;11.010;2023-02-20T08:50:13;5.57;;;2.20;;
54460;SDS011;40371;49.414;11.010;2023-02-20T08:52:41;3.53;;;2.20;;
54460;SDS011;40371;49.414;11.010;2023-02-20T08:55:08;3.47;;;2.43;;
54460;SDS011;40371;49.414;11.010;2023-02-20T08:57:34;2.80;;;2.10;;
54460;SDS011;40371;49.414;11.010;2023-02-20T08:59:59;3.37;;;2.10;;
54460;SDS011;40371;49.414;11.010;2023-02-20T09:02:25;4.07;;;2.10;;
54460;SDS011;40371;49.414;11.010;2023-02-20T09:04:53;2.10;;;1.87;;
54460;SDS011;40371;49.414;11.010;2023-02-20T09:07:19;4.67;;;3.80;;
54460;SDS011;40371;49.414;11.010;2023-02-20T09:09:45;7.07;;;4.43;;
54460;SDS011;40371;49.414;11.010;2023-02-20T09:12:11;5.77;;;3.77;;
54460;SDS011;40371;49.414;11.010;2023-02-20T09:14:37;5.73;;;2.40;;
54460;SDS011;40371;49.414;11.010;2023-02-20T09:17:03;5.20;;;2.70;;
54460;SDS011;40371;49.414;11.010;2023-02-20T09:19:29;4.80;;;2.50;;
54460;SDS011;40371;49.414;11.010;2023-02-20T09:21:55;4.93;;;2.53;;
54460;SDS011;40371;49.414;11.010;2023-02-20T09:24:20;3.67;;;2.20;;
54460;SDS011;40371;49.414;11.010;2023-02-20T09:26:46;2.97;;;1.93;;
54460;SDS011;40371;49.414;11.010;2023-02-20T09:31:42;3.00;;;2.03;;
54460;SDS011;40371;49.414;11.010;2023-02-20T09:34:08;4.10;;;2.47;;
54460;SDS011;40371;49.414;11.010;2023-02-20T09:36:33;3.07;;;2.10;;
54460;SDS011;40371;49.414;11.010;2023-02-20T09:38:59;4.65;;;2.03;;
54460;SDS011;40371;49.414;11.010;2023-02-20T09:41:28;3.38;;;1.80;;
54460;SDS011;40371;49.414;11.010;2023-02-20T09:47:07;3.92;;;2.10;;
54460;SDS011;40371;49.414;11.010;2023-02-20T09:49:55;4.32;;;2.25;;
54460;SDS011;40371;49.414;11.010;2023-02-20T09:52:31;3.40;;;2.00;;
54460;SDS011;40371;49.414;11.010;2023-02-20T09:55:10;3.20;;;2.10;;
54460;SDS011;40371;49.414;11.010;2023-02-20T09:57:38;3.30;;;1.75;;
54460;SDS011;40371;49.414;11.010;2023-02-20T10:00:09;4.85;;;2.20;;
54460;SDS011;40371;49.414;11.010;2023-02-20T10:02:43;3.65;;;1.95;;
54460;SDS011;40371;49.414;11.010;2023-02-20T10:07:48;2.75;;;1.90;;
54460;SDS011;40371;49.414;11.010;2023-02-20T10:18:37;3.00;;;1.60;;
54460;SDS011;40371;49.414;11.010;2023-02-20T10:23:57;4.05;;;2.65;;
54460;SDS011;40371;49.414;11.010;2023-02-20T10:26:43;3.67;;;1.70;;
54460;SDS011;40371;49.414;11.010;2023-02-20T10:29:22;3.70;;;1.53;;
54460;SDS011;40371;49.414;11.010;2023-02-20T10:31:57;3.00;;;1.70;;
54460;SDS011;40371;49.414;11.010;2023-02-20T10:34:40;4.40;;;1.77;;
54460;SDS011;40371;49.414;11.010;2023-02-20T10:37:20;2.33;;;1.33;;
54460;SDS011;40371;49.414;11.010;2023-02-20T10:39:51;4.93;;;2.13;;
54460;SDS011;40371;49.414;11.010;2023-02-20T10:42:29;3.97;;;1.87;;
54460;SDS011;40371;49.414;11.010;2023-02-20T10:45:09;3.33;;;1.90;;
54460;SDS011;40371;49.414;11.010;2023-02-20T10:48:04;3.20;;;1.60;;
54460;SDS011;40371;49.414;11.010;2023-02-20T10:50:40;2.30;;;1.67;;
54460;SDS011;40371;49.414;11.010;2023-02-20T10:53:15;4.20;;;2.10;;
54460;SDS011;40371;49.414;11.010;2023-02-20T10:55:50;3.17;;;2.00;;
54460;SDS011;40371;49.414;11.010;2023-02-20T10:58:39;3.43;;;1.70;;
54460;SDS011;40371;49.414;11.010;2023-02-20T11:01:25;1.97;;;1.77;;
54460;SDS011;40371;49.414;11.010;2023-02-20T11:04:11;2.43;;;1.37;;
54460;SDS011;40371;49.414;11.010;2023-02-20T11:06:48;4.40;;;1.87;;
54460;SDS011;40371;49.414;11.010;2023-02-20T11:09:43;6.73;;;6.00;;
54460;SDS011;40371;49.414;11.010;2023-02-20T11:12:23;3.67;;;3.07;;
54460;SDS011;40371;49.414;11.010;2023-02-20T11:14:54;8.98;;;6.82;;
54460;SDS011;40371;49.414;11.010;2023-02-20T11:17:23;3.60;;;2.63;;
54460;SDS011;40371;49.414;11.010;2023-02-20T11:19:52;4.53;;;3.75;;
54460;SDS011;40371;49.414;11.010;2023-02-20T11:22:36;3.42;;;2.25;;
54460;SDS011;40371;49.414;11.010;2023-02-20T11:27:49;2.35;;;1.67;;
54460;SDS011;40371;49.414;11.010;2023-02-20T11:35:48;2.88;;;1.67;;
54460;SDS011;40371;49.414;11.010;2023-02-20T11:40:46;3.47;;;1.70;;
54460;SDS011;40371;49.414;11.010;2023-02-20T11:43:31;4.27;;;1.87;;
54460;SDS011;40371;49.414;11.010;2023-02-20T11:48:33;3.97;;;2.37;;
54460;SDS011;40371;49.414;11.010;2023-02-20T11:50:59;3.20;;;1.77;;
54460;SDS011;40371;49.414;11.010;2023-02-20T11:53:26;3.93;;;2.17;;
54460;SDS011;40371;49.414;11.010;2023-02-20T11:58:37;4.43;;;1.90;;
54460;SDS011;40371;49.414;11.010;2023-02-20T12:01:03;8.77;;;5.60;;
54460;SDS011;40371;49.414;11.010;2023-02-20T12:03:31;4.43;;;2.93;;
54460;SDS011;40371;49.414;11.010;2023-02-20T12:05:59;4.60;;;2.57;;
54460;SDS011;40371;49.414;11.010;2023-02-20T12:08:49;5.00;;;2.57;;
54460;SDS011;40371;49.414;11.010;2023-02-20T12:11:19;4.27;;;2.53;;
54460;SDS011;40371;49.414;11.010;2023-02-20T12:13:47;3.63;;;2.40;;
54460;SDS011;40371;49.414;11.010;2023-02-20T12:16:25;5.50;;;2.53;;
54460;SDS011;40371;49.414;11.010;2023-02-20T12:19:18;4.40;;;2.10;;
54460;SDS011;40371;49.414;11.010;2023-02-20T12:21:55;2.63;;;2.07;;
54460;SDS011;40371;49.414;11.010;2023-02-20T12:27:28;3.93;;;1.80;;
54460;SDS011;40371;49.414;11.010;2023-02-20T12:30:15;4.60;;;1.77;;
54460;SDS011;40371;49.414;11.010;2023-02-20T12:32:52;1.93;;;1.67;;
54460;SDS011;40371;49.414;11.010;2023-02-20T12:35:30;2.60;;;1.77;;
54460;SDS011;40371;49.414;11.010;2023-02-20T12:38:01;3.23;;;1.97;;
54460;SDS011;40371;49.414;11.010;2023-02-20T12:40:50;3.37;;;1.70;;
54460;SDS011;40371;49.414;11.010;2023-02-20T12:43:31;2.33;;;1.87;;
54460;SDS011;40371;49.414;11.010;2023-02-20T12:46:16;3.60;;;1.90;;
54460;SDS011;40371;49.414;11.010;2023-02-20T12:48:56;3.13;;;1.80;;
54460;SDS011;40371;49.414;11.010;2023-02-20T13:00:51;4.00;;;1.97;;
54460;SDS011;40371;49.414;11.010;2023-02-20T13:05:49;2.50;;;1.60;;
54460;SDS011;40371;49.414;11.010;2023-02-20T13:08:21;2.70;;;1.87;;
54460;SDS011;40371;49.414;11.010;2023-02-20T13:11:21;4.10;;;1.90;;
54460;SDS011;40371;49.414;11.010;2023-02-20T13:19:00;1.70;;;1.60;;
54460;SDS011;40371;49.414;11.010;2023-02-20T13:21:34;3.40;;;1.80;;
54460;SDS011;40371;49.414;11.010;2023-02-20T13:24:25;2.47;;;1.73;;
54460;SDS011;40371;49.414;11.010;2023-02-20T13:26:53;3.07;;;2.00;;
54460;SDS011;40371;49.414;11.010;2023-02-20T13:29:27;2.87;;;2.00;;
54460;SDS011;40371;49.414;11.010;2023-02-20T13:31:54;8.07;;;3.70;;
54460;SDS011;40371;49.414;11.010;2023-02-20T13:34:32;5.50;;;1.70;;
54460;SDS011;40371;49.414;11.010;2023-02-20T13:37:00;3.07;;;1.93;;
54460;SDS011;40371;49.414;11.010;2023-02-20T13:39:37;4.33;;;2.00;;
54460;SDS011;40371;49.414;11.010;2023-02-20T13:42:23;2.83;;;1.90;;
54460;SDS011;40371;49.414;11.010;2023-02-20T13:44:50;2.97;;;2.03;;
54460;SDS011;40371;49.414;11.010;2023-02-20T13:54:54;1.47;;;1.20;;
54460;SDS011;40371;49.414;11.010;2023-02-20T13:57:28;3.20;;;1.80;;
54460;SDS011;40371;49.414;11.010;2023-02-20T13:59:58;1.60;;;1.20;;
54460;SDS011;40371;49.414;11.010;2023-02-20T14:02:24;2.50;;;1.30;;
54460;SDS011;40371;49.414;11.010;2023-02-20T14:05:00;2.27;;;0.97;;
54460;SDS011;40371;49.414;11.010;2023-02-20T14:07:33;2.93;;;1.03;;
54460;SDS011;40371;49.414;11.010;2023-02-20T14:12:51;1.40;;;1.00;;
54460;SDS011;40371;49.414;11.010;2023-02-20T14:15:20;2.90;;;2.37;;
54460;SDS011;40371;49.414;11.010;2023-02-20T14:17:45;1.90;;;1.70;;
54460;SDS011;40371;49.414;11.010;2023-02-20T14:20:17;4.53;;;0.97;;
54460;SDS011;40371;49.414;11.010;2023-02-20T14:22:46;2.80;;;1.30;;
54460;SDS011;40371;49.414;11.010;2023-02-20T14:25:17;2.37;;;1.80;;
54460;SDS011;40371;49.414;11.010;2023-02-20T14:27:46;2.43;;;1.00;;
54460;SDS011;40371;49.414;11.010;2023-02-20T14:32:44;3.07;;;1.60;;
54460;SDS011;40371;49.414;11.010;2023-02-20T14:35:24;1.07;;;0.90;;
54460;SDS011;40371;49.414;11.010;2023-02-20T14:38:22;1.97;;;1.40;;
54460;SDS011;40371;49.414;11.010;2023-02-20T14:41:18;1.47;;;1.00;;
54460;SDS011;40371;49.414;11.010;2023-02-20T14:46:22;1.37;;;1.27;;
54460;SDS011;40371;49.414;11.010;2023-02-20T14:48:54;2.73;;;1.33;;
54460;SDS011;40371;49.414;11.010;2023-02-20T14:51:37;3.20;;;1.27;;
54460;SDS011;40371;49.414;11.010;2023-02-20T14:56:38;2.53;;;1.10;;
54460;SDS011;40371;49.414;11.010;2023-02-20T15:02:09;2.07;;;1.17;;
54460;SDS011;40371;49.414;11.010;2023-02-20T15:07:43;2.90;;;1.00;;
54460;SDS011;40371;49.414;11.010;2023-02-20T15:10:32;1.20;;;1.10;;
54460;SDS011;40371;49.414;11.010;2023-02-20T15:13:07;1.63;;;1.10;;
54460;SDS011;40371;49.414;11.010;2023-02-20T15:15:36;2.90;;;1.37;;
54460;SDS011;40371;49.414;11.010;2023-02-20T15:18:05;1.83;;;1.30;;
54460;SDS011;40371;49.414;11.010;2023-02-20T15:25:49;0.83;;;0.83;;
54460;SDS011;40371;49.414;11.010;2023-02-20T15:33:48;1.83;;;0.97;;
54460;SDS011;40371;49.414;11.010;2023-02-20T15:36:19;1.13;;;1.00;;
54460;SDS011;40371;49.414;11.010;2023-02-20T15:38:49;1.87;;;1.07;;
54460;SDS011;40371;49.414;11.010;2023-02-20T15:41:16;2.13;;;1.73;;
54460;SDS011;40371;49.414;11.010;2023-02-20T15:43:45;2.30;;;1.30;;
54460;SDS011;40371;49.414;11.010;2023-02-20T15:46:14;1.73;;;1.30;;
54460;SDS011;40371;49.414;11.010;2023-02-20T15:48:41;3.43;;;1.27;;
54460;SDS011;40371;49.414;11.010;2023-02-20T15:51:07;2.80;;;1.07;;
54460;SDS011;40371;49.414;11.010;2023-02-20T15:53:33;2.20;;;1.10;;
54460;SDS011;40371;49.414;11.010;2023-02-20T15:55:59;3.53;;;1.07;;
54460;SDS011;40371;49.414;11.010;2023-02-20T15:58:27;3.50;;;1.37;;
54460;SDS011;40371;49.414;11.010;2023-02-20T16:00:55;2.97;;;1.37;;
54460;SDS011;40371;49.414;11.010;2023-02-20T16:03:22;2.90;;;1.00;;
54460;SDS011;40371;49.414;11.010;2023-02-20T16:05:49;2.33;;;1.30;;
54460;SDS011;40371;49.414;11.010;2023-02-20T16:08:14;1.87;;;1.00;;
54460;SDS011;40371;49.414;11.010;2023-02-20T16:10:40;2.97;;;1.40;;
54460;SDS011;40371;49.414;11.010;2023-02-20T16:13:07;2.07;;;1.10;;
54460;SDS011;40371;49.414;11.010;2023-02-20T16:16:19;1.73;;;0.97;;
54460;SDS011;40371;49.414;11.010;2023-02-20T16:18:47;2.20;;;1.43;;
54460;SDS011;40371;49.414;11.010;2023-02-20T16:21:14;2.20;;;1.10;;
54460;SDS011;40371;49.414;11.010;2023-02-20T16:23:42;2.20;;;1.40;;
54460;SDS011;40371;49.414;11.010;2023-02-20T16:26:12;1.90;;;1.13;;
54460;SDS011;40371;49.414;11.010;2023-02-20T16:28:38;3.23;;;1.17;;
54460;SDS011;40371;49.414;11.010;2023-02-20T16:31:04;1.67;;;1.20;;
54460;SDS011;40371;49.414;11.010;2023-02-20T16:33:29;2.43;;;2.23;;
54460;SDS011;40371;49.414;11.010;2023-02-20T16:35:55;3.80;;;2.97;;
54460;SDS011;40371;49.414;11.010;2023-02-20T16:38:22;4.20;;;1.50;;
54460;SDS011;40371;49.414;11.010;2023-02-20T16:40:48;2.20;;;1.33;;
54460;SDS011;40371;49.414;11.010;2023-02-20T16:43:18;2.17;;;1.50;;
54460;SDS011;40371;49.414;11.010;2023-02-20T16:45:45;2.30;;;1.20;;
54460;SDS011;40371;49.414;11.010;2023-02-20T16:48:12;3.73;;;2.87;;
54460;SDS011;40371;49.414;11.010;2023-02-20T16:50:41;4.83;;;2.03;;
54460;SDS011;40371;49.414;11.010;2023-02-20T16:53:08;2.50;;;1.63;;
54460;SDS011;40371;49.414;11.010;2023-02-20T16:55:36;2.13;;;1.80;;
54460;SDS011;40371;49.414;11.010;2023-02-20T16:58:04;2.10;;;1.83;;